Time;durP1;ratioP1;P1;durP2;ratioP2;P2;SDS_P1;SDS_P2;PMS_P1;PMS_P2;Temp;Humidity;BMP_temperature;BMP_pressure;BME280_temperature;BME280_humidity;BME280_pressure;Samples;Min_cycle;Max_cycle;Signal;HPM_P1;HPM_P2
2022/03/25 00:00:32;;;;;;;36.80;24.63;;;;;;;;;;4916079;29;20183;-77
2022/03/25 00:02:58;;;;;;;41.53;26.40;;;;;;;;;;4916865;29;20181;-76
2022/03/25 00:05:24;;;;;;;43.38;27.45;;;;;;;;;;4931255;29;20196;-75
2022/03/25 00:07:50;;;;;;;48.30;29.33;;;;;;;;;;4916664;29;20189;-78
2022/03/25 00:10:16;;;;;;;40.33;25.07;;;;;;;;;;4930885;29;20427;-77
2022/03/25 00:12:42;;;;;;;45.40;27.67;;;;;;;;;;4916251;29;20854;-74
2022/03/25 00:15:08;;;;;;;44.67;26.48;;;;;;;;;;4916741;29;20542;-77
2022/03/25 00:17:34;;;;;;;43.80;26.25;;;;;;;;;;4916649;29;20561;-75
2022/03/25 00:20:00;;;;;;;46.08;29.40;;;;;;;;;;4916451;29;20655;-77
2022/03/25 00:22:26;;;;;;;46.80;27.93;;;;;;;;;;4919001;29;20327;-75
2022/03/25 00:24:52;;;;;;;42.97;26.40;;;;;;;;;;4934419;29;20438;-75
2022/03/25 00:27:18;;;;;;;53.35;28.95;;;;;;;;;;4919817;29;20245;-77
2022/03/25 00:29:45;;;;;;;44.15;28.65;;;;;;;;;;4919936;29;20206;-75
2022/03/25 00:32:11;;;;;;;43.28;29.08;;;;;;;;;;4919469;29;20211;-79
2022/03/25 00:34:37;;;;;;;44.78;28.52;;;;;;;;;;4919654;29;20262;-76
2022/03/25 00:37:04;;;;;;;51.95;27.77;;;;;;;;;;4919663;29;20190;-76
2022/03/25 00:39:30;;;;;;;45.03;28.30;;;;;;;;;;4919680;29;20181;-76
2022/03/25 00:41:56;;;;;;;42.97;26.85;;;;;;;;;;4919236;29;20267;-74
2022/03/25 00:44:23;;;;;;;46.50;27.80;;;;;;;;;;4919715;29;20191;-74
2022/03/25 00:46:49;;;;;;;45.85;28.10;;;;;;;;;;4919214;29;20462;-76
2022/03/25 00:49:16;;;;;;;41.40;27.60;;;;;;;;;;4934116;29;20213;-76
2022/03/25 00:51:42;;;;;;;42.30;27.30;;;;;;;;;;4919289;29;20444;-76
2022/03/25 00:54:09;;;;;;;40.73;25.73;;;;;;;;;;4919498;29;20182;-76
2022/03/25 00:56:35;;;;;;;40.75;25.33;;;;;;;;;;4933932;29;20419;-77
2022/03/25 00:59:01;;;;;;;43.72;27.88;;;;;;;;;;4919370;29;20218;-79
2022/03/25 01:01:27;;;;;;;40.25;26.55;;;;;;;;;;4918944;29;20256;-74
2022/03/25 01:03:53;;;;;;;45.40;27.73;;;;;;;;;;4919408;29;20186;-76
2022/03/25 01:06:21;;;;;;;40.10;27.73;;;;;;;;;;4933846;29;20466;-78
2022/03/25 01:08:47;;;;;;;45.88;27.30;;;;;;;;;;4919286;29;20178;-76
2022/03/25 01:11:13;;;;;;;40.95;25.58;;;;;;;;;;4918726;29;20207;-75
2022/03/25 01:13:39;;;;;;;43.75;27.15;;;;;;;;;;4933666;29;20557;-75
2022/03/25 01:16:06;;;;;;;50.33;30.80;;;;;;;;;;4919031;29;20212;-77
2022/03/25 01:18:33;;;;;;;47.97;30.00;;;;;;;;;;4919173;29;20180;-78
2022/03/25 01:20:59;;;;;;;46.85;29.23;;;;;;;;;;4918605;29;20547;-77
2022/03/25 01:23:26;;;;;;;56.28;28.77;;;;;;;;;;4918892;29;20193;-75
2022/03/25 01:25:52;;;;;;;49.15;31.30;;;;;;;;;;4918937;29;20208;-75
2022/03/25 01:28:18;;;;;;;45.33;29.83;;;;;;;;;;4918885;29;20240;-77
2022/03/25 01:30:45;;;;;;;47.83;29.70;;;;;;;;;;4918502;29;20509;-78
2022/03/25 01:33:11;;;;;;;50.05;29.98;;;;;;;;;;4918207;29;20175;-74
2022/03/25 01:35:37;;;;;;;48.78;30.60;;;;;;;;;;4918694;29;20260;-77
2022/03/25 01:38:04;;;;;;;53.80;31.98;;;;;;;;;;4918639;29;20225;-76
2022/03/25 01:40:30;;;;;;;50.15;29.83;;;;;;;;;;4918281;29;20169;-73
2022/03/25 01:42:56;;;;;;;52.28;33.10;;;;;;;;;;4918648;29;20204;-78
2022/03/25 01:45:34;;;;;;;52.90;31.90;;;;;;;;;;4918329;29;20680;-76
2022/03/25 01:48:01;;;;;;;53.17;32.10;;;;;;;;;;4918580;29;20834;-75
2022/03/25 01:50:27;;;;;;;48.00;30.23;;;;;;;;;;4918221;29;20196;-75
2022/03/25 01:52:53;;;;;;;48.92;31.45;;;;;;;;;;4918524;29;20212;-75
2022/03/25 01:55:21;;;;;;;55.42;31.92;;;;;;;;;;4918276;29;20261;-76
2022/03/25 01:57:49;;;;;;;54.25;31.40;;;;;;;;;;4918306;29;20174;-76
2022/03/25 02:00:16;;;;;;;52.50;31.15;;;;;;;;;;4918412;29;20631;-78
2022/03/25 02:02:43;;;;;;;53.72;31.98;;;;;;;;;;4918272;29;20200;-77
2022/03/25 02:05:09;;;;;;;47.22;30.25;;;;;;;;;;4918427;29;20505;-78
2022/03/25 02:07:35;;;;;;;49.42;30.63;;;;;;;;;;4917953;29;20305;-78
2022/03/25 02:10:01;;;;;;;51.03;31.13;;;;;;;;;;4918191;29;20245;-77
2022/03/25 02:12:28;;;;;;;55.23;32.03;;;;;;;;;;4917900;29;20430;-76
2022/03/25 02:14:57;;;;;;;53.63;29.85;;;;;;;;;;4917931;29;20444;-74
2022/03/25 02:17:23;;;;;;;54.03;32.50;;;;;;;;;;4918040;29;20541;-76
2022/03/25 02:19:49;;;;;;;56.55;30.52;;;;;;;;;;4917836;29;20193;-77
2022/03/25 02:22:15;;;;;;;54.60;31.50;;;;;;;;;;4917549;29;20196;-77
2022/03/25 02:24:41;;;;;;;56.65;32.78;;;;;;;;;;4917617;29;20192;-77
2022/03/25 02:27:08;;;;;;;54.42;32.22;;;;;;;;;;4917776;29;20207;-77
2022/03/25 02:29:34;;;;;;;48.50;29.33;;;;;;;;;;4917725;29;20215;-77
2022/03/25 02:32:00;;;;;;;50.47;30.02;;;;;;;;;;4917173;29;20296;-75
2022/03/25 02:34:26;;;;;;;53.28;32.70;;;;;;;;;;4917771;29;20208;-78
2022/03/25 02:36:52;;;;;;;58.13;29.67;;;;;;;;;;4917788;29;20267;-79
2022/03/25 02:39:18;;;;;;;52.08;28.08;;;;;;;;;;4917566;29;20422;-77
2022/03/25 02:41:44;;;;;;;58.53;31.50;;;;;;;;;;4917074;29;20616;-77
2022/03/25 02:44:11;;;;;;;51.10;31.38;;;;;;;;;;4916790;29;20192;-78
2022/03/25 02:46:37;;;;;;;54.40;32.03;;;;;;;;;;4917589;29;20546;-77
2022/03/25 02:49:03;;;;;;;48.88;29.88;;;;;;;;;;4917389;29;20195;-77
2022/03/25 02:51:29;;;;;;;53.58;31.25;;;;;;;;;;4917027;29;20200;-78
2022/03/25 02:53:56;;;;;;;53.10;30.73;;;;;;;;;;4916996;29;20196;-77
2022/03/25 02:56:22;;;;;;;61.85;31.52;;;;;;;;;;4917465;29;20424;-76
2022/03/25 02:58:48;;;;;;;46.58;29.38;;;;;;;;;;4917332;29;20219;-77
2022/03/25 03:01:14;;;;;;;46.45;29.67;;;;;;;;;;4916810;29;20223;-77
2022/03/25 03:03:40;;;;;;;55.88;31.52;;;;;;;;;;4917354;29;20185;-76
2022/03/25 03:06:07;;;;;;;51.53;30.73;;;;;;;;;;4917145;29;20610;-76
2022/03/25 03:08:35;;;;;;;58.17;33.28;;;;;;;;;;4932419;29;20642;-77
2022/03/25 03:11:01;;;;;;;62.13;31.30;;;;;;;;;;4916815;29;20276;-77
2022/03/25 03:13:27;;;;;;;51.72;30.85;;;;;;;;;;4917134;29;20181;-76
2022/03/25 03:15:53;;;;;;;52.72;30.45;;;;;;;;;;4917245;29;20509;-75
2022/03/25 03:18:22;;;;;;;59.17;31.50;;;;;;;;;;4917286;29;20191;-76
2022/03/25 03:20:48;;;;;;;48.47;29.70;;;;;;;;;;4916840;29;20210;-79
2022/03/25 03:23:14;;;;;;;56.45;30.70;;;;;;;;;;4917080;29;20208;-76
2022/03/25 03:25:40;;;;;;;60.88;32.30;;;;;;;;;;4917020;29;20181;-75
2022/03/25 03:28:07;;;;;;;46.08;29.38;;;;;;;;;;4931505;29;20535;-76
2022/03/25 03:30:33;;;;;;;53.30;28.90;;;;;;;;;;4916618;29;20590;-76
2022/03/25 03:32:59;;;;;;;55.08;31.38;;;;;;;;;;4916978;29;20609;-76
2022/03/25 03:35:26;;;;;;;47.00;30.80;;;;;;;;;;4916858;29;20178;-79
2022/03/25 03:37:52;;;;;;;53.72;31.42;;;;;;;;;;4916796;29;20599;-78
2022/03/25 03:40:18;;;;;;;57.80;32.92;;;;;;;;;;4916346;29;20271;-76
2022/03/25 03:42:45;;;;;;;57.40;33.50;;;;;;;;;;4916788;29;20297;-78
2022/03/25 03:45:12;;;;;;;54.17;31.23;;;;;;;;;;4931379;29;20860;-75
2022/03/25 03:47:39;;;;;;;51.60;28.88;;;;;;;;;;4916802;29;20296;-76
2022/03/25 03:50:06;;;;;;;48.47;30.25;;;;;;;;;;4916575;29;20175;-78
2022/03/25 03:52:32;;;;;;;54.88;30.55;;;;;;;;;;4916498;29;20567;-77
2022/03/25 03:54:58;;;;;;;58.73;32.67;;;;;;;;;;4917697;29;20192;-76
2022/03/25 03:57:24;;;;;;;47.20;28.95;;;;;;;;;;4935017;29;20944;-75
2022/03/25 03:59:50;;;;;;;50.97;28.90;;;;;;;;;;4920492;29;20197;-76
2022/03/25 04:02:16;;;;;;;61.25;33.05;;;;;;;;;;4919899;29;20208;-75
2022/03/25 04:04:42;;;;;;;47.83;29.23;;;;;;;;;;4920503;29;20267;-76
2022/03/25 04:07:08;;;;;;;54.15;31.13;;;;;;;;;;4920445;29;20467;-76
2022/03/25 04:09:36;;;;;;;55.77;32.17;;;;;;;;;;4920479;29;20189;-76
2022/03/25 04:12:02;;;;;;;54.13;29.73;;;;;;;;;;4920053;29;20438;-77
2022/03/25 04:14:28;;;;;;;57.75;33.05;;;;;;;;;;4920230;29;20697;-75
2022/03/25 04:16:54;;;;;;;52.03;30.02;;;;;;;;;;4920403;29;20276;-78
2022/03/25 04:19:20;;;;;;;52.20;31.02;;;;;;;;;;4920179;29;20282;-76
2022/03/25 04:21:46;;;;;;;60.17;32.53;;;;;;;;;;4919750;29;20200;-76
2022/03/25 04:24:12;;;;;;;60.00;32.15;;;;;;;;;;4919896;29;20900;-76
2022/03/25 04:26:38;;;;;;;52.20;32.00;;;;;;;;;;4919740;29;20208;-77
2022/03/25 04:29:04;;;;;;;61.70;34.93;;;;;;;;;;4919945;29;20424;-78
2022/03/25 04:31:30;;;;;;;56.60;32.10;;;;;;;;;;4919630;29;20498;-76
2022/03/25 04:33:56;;;;;;;57.40;32.28;;;;;;;;;;4934338;29;20416;-75
2022/03/25 04:36:22;;;;;;;52.05;31.95;;;;;;;;;;4919845;29;20270;-77
2022/03/25 04:38:48;;;;;;;46.63;30.70;;;;;;;;;;4919621;29;20711;-75
2022/03/25 04:41:14;;;;;;;50.42;31.92;;;;;;;;;;4919277;29;20437;-76
2022/03/25 04:43:40;;;;;;;58.05;31.20;;;;;;;;;;4919665;29;20272;-74
2022/03/25 04:46:06;;;;;;;53.88;31.58;;;;;;;;;;4919546;29;20260;-76
2022/03/25 04:48:33;;;;;;;60.45;32.40;;;;;;;;;;4919472;29;20183;-79
2022/03/25 04:50:59;;;;;;;51.22;31.35;;;;;;;;;;4919110;29;20195;-74
2022/03/25 04:53:26;;;;;;;57.33;33.03;;;;;;;;;;4919654;29;20183;-78
2022/03/25 04:55:52;;;;;;;52.35;31.08;;;;;;;;;;4919756;29;20179;-76
2022/03/25 04:58:18;;;;;;;57.10;30.65;;;;;;;;;;4919536;29;20209;-76
2022/03/25 05:00:44;;;;;;;56.58;33.90;;;;;;;;;;4919102;29;20203;-75
2022/03/25 05:03:11;;;;;;;53.30;32.25;;;;;;;;;;4919485;29;20207;-78
2022/03/25 05:05:37;;;;;;;60.22;32.85;;;;;;;;;;4919425;29;20181;-77
2022/03/25 05:08:04;;;;;;;51.08;32.17;;;;;;;;;;4918638;29;20208;-76
2022/03/25 05:10:30;;;;;;;54.35;31.65;;;;;;;;;;4933549;29;20228;-77
2022/03/25 05:12:56;;;;;;;57.47;32.22;;;;;;;;;;4918996;29;20177;-77
2022/03/25 05:15:22;;;;;;;61.05;35.72;;;;;;;;;;4919158;29;20180;-78
2022/03/25 05:17:51;;;;;;;62.92;32.25;;;;;;;;;;4918988;29;20184;-77
2022/03/25 05:20:19;;;;;;;55.92;32.38;;;;;;;;;;4918595;29;20189;-75
2022/03/25 05:22:45;;;;;;;58.10;32.70;;;;;;;;;;4918962;29;20215;-76
2022/03/25 05:25:11;;;;;;;60.47;35.00;;;;;;;;;;4918688;29;20196;-74
2022/03/25 05:27:44;;;;;;;62.20;35.63;;;;;;;;;;4919112;29;20713;-75
2022/03/25 05:30:11;;;;;;;63.60;36.40;;;;;;;;;;4918628;29;20184;-75
2022/03/25 05:32:38;;;;;;;63.63;35.40;;;;;;;;;;4918864;29;20257;-77
2022/03/25 05:35:06;;;;;;;72.20;38.85;;;;;;;;;;4918555;29;20696;-77
2022/03/25 05:37:32;;;;;;;62.05;38.08;;;;;;;;;;4918652;29;20179;-76
2022/03/25 05:39:57;;;;;;;61.03;33.95;;;;;;;;;;4918669;29;20184;-76
2022/03/25 05:42:24;;;;;;;72.40;39.27;;;;;;;;;;4918222;29;20204;-77
2022/03/25 05:44:50;;;;;;;66.10;37.92;;;;;;;;;;4918470;29;20777;-74
2022/03/25 05:47:16;;;;;;;71.80;38.93;;;;;;;;;;4918319;29;20213;-77
2022/03/25 05:49:42;;;;;;;67.90;38.23;;;;;;;;;;4918384;29;20405;-78
2022/03/25 05:52:08;;;;;;;65.77;36.63;;;;;;;;;;4918109;29;20428;-77
2022/03/25 05:54:34;;;;;;;70.97;36.83;;;;;;;;;;4918512;29;20451;-76
2022/03/25 05:57:00;;;;;;;66.63;37.33;;;;;;;;;;4918928;29;20181;-77
2022/03/25 05:59:26;;;;;;;63.80;34.23;;;;;;;;;;4932700;29;20184;-77
2022/03/25 06:01:52;;;;;;;64.37;33.70;;;;;;;;;;4917767;29;20476;-78
2022/03/25 06:04:20;;;;;;;60.70;34.30;;;;;;;;;;4918188;29;21053;-77
2022/03/25 06:06:46;;;;;;;58.20;35.30;;;;;;;;;;4932373;29;20301;-78
2022/03/25 06:09:12;;;;;;;56.15;34.22;;;;;;;;;;4917901;29;20190;-76
2022/03/25 06:11:38;;;;;;;59.53;34.97;;;;;;;;;;4932213;29;20674;-77
2022/03/25 06:14:04;;;;;;;60.37;35.60;;;;;;;;;;4917865;29;20484;-77
2022/03/25 06:16:30;;;;;;;61.55;35.28;;;;;;;;;;4932491;29;20433;-74
2022/03/25 06:18:57;;;;;;;56.78;35.53;;;;;;;;;;4918065;29;20185;-74
2022/03/25 06:21:23;;;;;;;54.88;32.65;;;;;;;;;;4917436;29;20268;-76
2022/03/25 06:23:49;;;;;;;55.83;33.05;;;;;;;;;;4917770;29;20625;-76
2022/03/25 06:26:15;;;;;;;58.60;33.60;;;;;;;;;;4917731;29;20208;-76
2022/03/25 06:28:41;;;;;;;56.92;34.90;;;;;;;;;;4917680;29;20961;-76
2022/03/25 06:31:08;;;;;;;55.57;33.37;;;;;;;;;;4917299;29;20239;-77
2022/03/25 06:33:34;;;;;;;56.67;35.90;;;;;;;;;;4917504;29;20417;-76
2022/03/25 06:36:01;;;;;;;62.05;35.83;;;;;;;;;;4917668;29;20220;-78
2022/03/25 06:38:27;;;;;;;59.13;34.05;;;;;;;;;;4917451;29;20213;-76
2022/03/25 06:40:53;;;;;;;58.08;34.67;;;;;;;;;;4917224;29;20667;-76
2022/03/25 06:43:19;;;;;;;62.03;34.95;;;;;;;;;;4917480;29;20197;-76
2022/03/25 06:45:45;;;;;;;60.58;35.00;;;;;;;;;;4931613;29;20186;-77
2022/03/25 06:48:11;;;;;;;54.92;34.33;;;;;;;;;;4917435;29;20241;-76
2022/03/25 06:50:37;;;;;;;63.22;33.15;;;;;;;;;;4917061;29;20185;-78
2022/03/25 06:53:04;;;;;;;66.75;35.53;;;;;;;;;;4917242;29;20183;-75
2022/03/25 06:55:30;;;;;;;57.35;33.42;;;;;;;;;;4917326;29;20173;-74
2022/03/25 06:57:57;;;;;;;66.68;35.35;;;;;;;;;;4917184;29;20408;-77
2022/03/25 07:00:24;;;;;;;60.63;34.78;;;;;;;;;;4916943;29;20668;-74
2022/03/25 07:02:51;;;;;;;65.07;36.47;;;;;;;;;;4917444;29;20173;-78
2022/03/25 07:05:17;;;;;;;65.20;37.15;;;;;;;;;;4917290;29;20643;-76
2022/03/25 07:07:44;;;;;;;60.65;35.65;;;;;;;;;;4917024;29;20243;-75
2022/03/25 07:10:10;;;;;;;54.88;33.60;;;;;;;;;;4916726;29;20180;-77
2022/03/25 07:12:37;;;;;;;58.65;35.90;;;;;;;;;;4917185;29;20206;-75
2022/03/25 07:15:05;;;;;;;52.55;33.65;;;;;;;;;;4917231;29;20265;-76
2022/03/25 07:17:31;;;;;;;49.55;32.72;;;;;;;;;;4917163;29;20263;-77
2022/03/25 07:19:57;;;;;;;57.70;34.47;;;;;;;;;;4931535;29;20293;-77
2022/03/25 07:22:23;;;;;;;55.08;34.03;;;;;;;;;;4916653;29;20453;-78
2022/03/25 07:24:49;;;;;;;56.22;32.25;;;;;;;;;;4916885;29;20209;-75
2022/03/25 07:27:15;;;;;;;53.00;34.07;;;;;;;;;;4916819;29;20214;-78
2022/03/25 07:29:41;;;;;;;65.20;35.93;;;;;;;;;;4916734;29;20469;-75
2022/03/25 07:32:07;;;;;;;59.65;34.95;;;;;;;;;;4930953;29;20485;-76
2022/03/25 07:34:36;;;;;;;55.28;35.90;;;;;;;;;;4917065;29;20205;-76
2022/03/25 07:37:03;;;;;;;60.90;34.65;;;;;;;;;;4917034;29;20182;-76
2022/03/25 07:39:30;;;;;;;57.95;35.70;;;;;;;;;;4931361;29;20651;-76
2022/03/25 07:41:56;;;;;;;60.30;36.97;;;;;;;;;;4916468;29;20602;-77
2022/03/25 07:44:21;;;;;;;58.83;34.70;;;;;;;;;;4915425;29;20193;-77
2022/03/25 07:46:47;;;;;;;64.00;36.80;;;;;;;;;;4916703;29;20217;-76
2022/03/25 07:49:13;;;;;;;61.13;36.33;;;;;;;;;;4916686;29;20418;-76
2022/03/25 07:51:39;;;;;;;58.20;33.80;;;;;;;;;;4931107;29;20437;-76
2022/03/25 07:54:08;;;;;;;55.92;34.75;;;;;;;;;;4916634;29;20847;-76
2022/03/25 07:56:34;;;;;;;54.67;35.60;;;;;;;;;;4916642;29;20194;-75
2022/03/25 07:59:00;;;;;;;56.25;36.00;;;;;;;;;;4916894;29;20266;-78
2022/03/25 08:01:28;;;;;;;58.95;35.33;;;;;;;;;;4930857;29;20205;-78
2022/03/25 08:03:55;;;;;;;64.28;38.60;;;;;;;;;;4916748;29;20182;-78
2022/03/25 08:06:22;;;;;;;62.60;36.78;;;;;;;;;;4916461;29;20206;-73
2022/03/25 08:08:49;;;;;;;58.08;35.67;;;;;;;;;;4916637;29;20590;-76
2022/03/25 08:11:18;;;;;;;59.80;35.55;;;;;;;;;;4916162;29;20285;-73
2022/03/25 08:13:44;;;;;;;68.57;37.67;;;;;;;;;;4916457;29;20496;-73
2022/03/25 08:16:10;;;;;;;80.95;35.13;;;;;;;;;;4914236;29;20265;-78
2022/03/25 08:18:36;;;;;;;57.10;36.17;;;;;;;;;;4918433;29;20617;-76
2022/03/25 08:21:02;;;;;;;59.70;35.00;;;;;;;;;;4916377;29;20452;-77
2022/03/25 08:29:01;;;;;;;55.85;36.42;;;;;;;;;;4916592;29;20231;-75
2022/03/25 08:31:34;;;;;;;69.60;38.20;;;;;;;;;;4916130;29;20657;-75
2022/03/25 08:34:00;;;;;;;70.60;37.55;;;;;;;;;;4916434;29;20167;-75
2022/03/25 08:36:26;;;;;;;56.05;34.60;;;;;;;;;;4915892;29;20193;-78
2022/03/25 08:38:52;;;;;;;59.03;36.30;;;;;;;;;;4916234;29;20277;-75
2022/03/25 08:41:18;;;;;;;60.77;36.90;;;;;;;;;;4915936;29;20434;-77
2022/03/25 08:43:47;;;;;;;60.60;36.17;;;;;;;;;;4919589;29;20911;-76
2022/03/25 08:46:13;;;;;;;56.38;35.13;;;;;;;;;;4902644;29;20989;-76
2022/03/25 08:48:39;;;;;;;54.95;36.17;;;;;;;;;;4919396;29;20180;-76
2022/03/25 08:51:05;;;;;;;63.17;37.90;;;;;;;;;;4914447;29;20751;-75
2022/03/25 08:53:32;;;;;;;58.53;37.65;;;;;;;;;;4909131;29;20263;-75
2022/03/25 08:55:58;;;;;;;61.10;36.70;;;;;;;;;;4909352;29;20183;-76
2022/03/25 08:58:24;;;;;;;59.40;36.30;;;;;;;;;;4916129;29;20184;-76
2022/03/25 09:00:50;;;;;;;50.80;34.67;;;;;;;;;;4910338;29;20491;-74
2022/03/25 09:03:16;;;;;;;51.47;34.47;;;;;;;;;;4910383;29;20560;-78
2022/03/25 09:05:42;;;;;;;52.30;34.67;;;;;;;;;;4911111;29;20782;-77
2022/03/25 09:08:09;;;;;;;53.53;35.27;;;;;;;;;;4916514;29;20386;-77
2022/03/25 09:10:35;;;;;;;64.93;37.47;;;;;;;;;;4918696;29;20419;-76
2022/03/25 09:13:01;;;;;;;50.23;34.50;;;;;;;;;;4917852;29;20394;-74
2022/03/25 09:15:28;;;;;;;69.17;37.17;;;;;;;;;;4910161;29;20394;-75
2022/03/25 09:17:54;;;;;;;54.53;36.20;;;;;;;;;;4910307;29;20445;-75
2022/03/25 09:20:20;;;;;;;53.90;35.97;;;;;;;;;;4907281;29;20394;-77
2022/03/25 09:22:46;;;;;;;49.27;36.70;;;;;;;;;;4907358;29;20856;-76
2022/03/25 09:25:13;;;;;;;50.30;36.97;;;;;;;;;;4909318;29;20440;-77
2022/03/25 09:27:39;;;;;;;51.37;33.93;;;;;;;;;;4918806;29;20496;-76
2022/03/25 09:30:06;;;;;;;49.00;35.63;;;;;;;;;;4918771;29;20442;-75
2022/03/25 09:32:32;;;;;;;48.83;35.40;;;;;;;;;;4905945;29;20534;-75
2022/03/25 09:35:10;;;;;;;49.33;34.73;;;;;;;;;;4898285;29;20499;-73
2022/03/25 09:37:36;;;;;;;45.90;33.20;;;;;;;;;;4899875;29;20471;-76
2022/03/25 09:40:03;;;;;;;49.20;34.10;;;;;;;;;;4899888;29;20792;-76
2022/03/25 09:42:31;;;;;;;46.40;33.30;;;;;;;;;;4899332;29;20762;-76
2022/03/25 09:44:57;;;;;;;50.57;33.53;;;;;;;;;;4899563;29;20416;-75
2022/03/25 09:47:23;;;;;;;46.17;32.80;;;;;;;;;;4899590;29;20558;-74
2022/03/25 09:49:51;;;;;;;45.57;30.53;;;;;;;;;;4899588;29;20412;-77
2022/03/25 09:52:18;;;;;;;65.10;33.67;;;;;;;;;;4898969;29;20432;-76
2022/03/25 09:54:44;;;;;;;51.23;35.20;;;;;;;;;;4899442;29;20408;-74
2022/03/25 09:57:10;;;;;;;54.77;31.63;;;;;;;;;;4899269;29;20447;-76
2022/03/25 09:59:36;;;;;;;31.50;22.40;;;;;;;;;;4899568;29;20419;-78
2022/03/25 10:02:02;;;;;;;30.93;19.47;;;;;;;;;;4899091;29;20463;-77
2022/03/25 10:04:35;;;;;;;28.40;18.53;;;;;;;;;;4899515;29;20555;-75
2022/03/25 10:07:02;;;;;;;27.97;19.07;;;;;;;;;;4899221;29;20451;-75
2022/03/25 10:09:28;;;;;;;30.50;21.10;;;;;;;;;;4899278;29;20784;-75
2022/03/25 10:11:54;;;;;;;38.07;23.90;;;;;;;;;;4898751;29;20520;-76
2022/03/25 10:14:23;;;;;;;30.60;23.50;;;;;;;;;;4899117;29;20407;-78
2022/03/25 10:16:53;;;;;;;26.43;21.53;;;;;;;;;;4899097;29;20423;-74
2022/03/25 10:19:21;;;;;;;32.70;23.27;;;;;;;;;;4898995;29;20416;-77
2022/03/25 10:21:54;;;;;;;32.83;21.10;;;;;;;;;;4898615;29;20463;-76
2022/03/25 10:24:35;;;;;;;32.30;22.40;;;;;;;;;;4899124;29;20771;-76
2022/03/25 10:27:06;;;;;;;33.83;24.30;;;;;;;;;;4898848;29;20494;-75
2022/03/25 10:29:32;;;;;;;31.07;24.00;;;;;;;;;;4898973;29;20503;-77
2022/03/25 10:32:11;;;;;;;31.30;23.43;;;;;;;;;;4898592;29;20444;-77
2022/03/25 10:34:38;;;;;;;31.13;23.27;;;;;;;;;;4899065;29;20507;-76
2022/03/25 10:37:05;;;;;;;36.40;26.87;;;;;;;;;;4898662;29;20964;-76
2022/03/25 10:39:32;;;;;;;32.80;22.47;;;;;;;;;;4897249;29;20929;-76
2022/03/25 10:41:59;;;;;;;28.00;19.87;;;;;;;;;;4898221;29;20439;-75
2022/03/25 10:44:36;;;;;;;29.53;20.87;;;;;;;;;;4898477;29;20423;-76
2022/03/25 10:47:20;;;;;;;37.83;23.17;;;;;;;;;;4898401;29;20455;-77
2022/03/25 10:49:47;;;;;;;33.07;22.40;;;;;;;;;;4898514;29;20400;-75
2022/03/25 10:52:21;;;;;;;30.30;22.27;;;;;;;;;;4898111;29;20496;-75
2022/03/25 10:54:47;;;;;;;30.57;22.80;;;;;;;;;;4897259;29;20794;-76
2022/03/25 10:57:15;;;;;;;36.70;22.10;;;;;;;;;;4898370;29;20519;-75
2022/03/25 10:59:41;;;;;;;28.27;22.00;;;;;;;;;;4898277;29;20423;-76
2022/03/25 11:02:08;;;;;;;26.00;20.90;;;;;;;;;;4898021;29;20462;-77
2022/03/25 11:04:35;;;;;;;35.90;21.70;;;;;;;;;;4897852;29;20491;-75
2022/03/25 11:07:01;;;;;;;23.77;19.30;;;;;;;;;;4898224;29;20502;-78
2022/03/25 11:09:28;;;;;;;24.80;15.10;;;;;;;;;;4898242;29;20448;-76
2022/03/25 11:11:55;;;;;;;23.47;13.97;;;;;;;;;;4897782;29;20767;-76
2022/03/25 11:14:22;;;;;;;22.60;13.60;;;;;;;;;;4898304;29;20542;-75
2022/03/25 11:16:54;;;;;;;15.33;9.37;;;;;;;;;;4898177;29;20458;-75
2022/03/25 11:19:20;;;;;;;10.80;7.73;;;;;;;;;;4897234;29;20766;-75
2022/03/25 11:21:47;;;;;;;12.90;7.60;;;;;;;;;;4897710;29;20442;-75
2022/03/25 11:24:17;;;;;;;12.50;6.20;;;;;;;;;;4898013;29;20448;-77
2022/03/25 11:26:45;;;;;;;11.40;7.13;;;;;;;;;;4898029;29;20455;-76
2022/03/25 11:29:12;;;;;;;14.60;7.57;;;;;;;;;;4897996;29;20415;-78
2022/03/25 11:31:56;;;;;;;14.07;9.13;;;;;;;;;;4897815;29;20432;-76
2022/03/25 11:34:26;;;;;;;12.50;6.90;;;;;;;;;;4897939;29;20459;-76
2022/03/25 11:37:12;;;;;;;15.90;8.57;;;;;;;;;;4898097;29;20426;-75
2022/03/25 11:39:38;;;;;;;18.03;8.10;;;;;;;;;;4897862;29;20422;-75
2022/03/25 11:42:06;;;;;;;16.00;7.10;;;;;;;;;;4897471;29;20440;-77
2022/03/25 11:44:33;;;;;;;16.63;6.50;;;;;;;;;;4897952;29;20885;-75
2022/03/25 11:46:59;;;;;;;9.57;6.87;;;;;;;;;;4897825;29;20467;-75
2022/03/25 11:49:29;;;;;;;17.63;7.07;;;;;;;;;;4897888;29;20769;-77
2022/03/25 11:51:56;;;;;;;12.60;7.37;;;;;;;;;;4897290;29;20424;-76
2022/03/25 11:54:34;;;;;;;14.80;8.60;;;;;;;;;;4897757;29;20416;-74
2022/03/25 11:57:02;;;;;;;13.93;8.77;;;;;;;;;;4897751;29;20443;-77
2022/03/25 11:59:46;;;;;;;13.90;9.17;;;;;;;;;;4897698;29;20905;-77
2022/03/25 12:02:24;;;;;;;20.87;9.13;;;;;;;;;;4897138;29;20499;-77
2022/03/25 12:04:50;;;;;;;20.07;11.40;;;;;;;;;;4897881;29;20518;-77
2022/03/25 12:07:16;;;;;;;17.50;9.80;;;;;;;;;;4897850;29;20969;-75
2022/03/25 12:09:46;;;;;;;17.43;10.37;;;;;;;;;;4897587;29;20430;-74
2022/03/25 12:12:12;;;;;;;21.00;10.80;;;;;;;;;;4897317;29;20814;-77
2022/03/25 12:14:57;;;;;;;14.70;9.90;;;;;;;;;;4897596;29;20420;-75
2022/03/25 12:17:24;;;;;;;24.10;11.80;;;;;;;;;;4900653;29;20928;-74
2022/03/25 12:19:56;;;;;;;16.20;11.47;;;;;;;;;;4901196;29;20779;-76
2022/03/25 12:22:23;;;;;;;17.97;10.67;;;;;;;;;;4900776;29;20466;-76
2022/03/25 12:24:50;;;;;;;14.43;10.00;;;;;;;;;;4901056;29;20431;-75
2022/03/25 12:27:17;;;;;;;17.97;10.53;;;;;;;;;;4900963;29;20459;-77
2022/03/25 12:29:43;;;;;;;20.90;9.00;;;;;;;;;;4901232;29;20412;-76
2022/03/25 12:32:13;;;;;;;14.60;9.93;;;;;;;;;;4900483;29;20760;-75
2022/03/25 12:34:58;;;;;;;18.30;10.93;;;;;;;;;;4901118;29;20809;-75
2022/03/25 12:37:38;;;;;;;13.67;9.80;;;;;;;;;;4900994;29;20905;-76
2022/03/25 12:40:18;;;;;;;20.73;10.07;;;;;;;;;;4900587;29;20820;-75
2022/03/25 12:42:47;;;;;;;17.00;10.67;;;;;;;;;;4900537;29;20435;-75
2022/03/25 12:45:13;;;;;;;22.00;11.93;;;;;;;;;;4900758;29;20761;-75
2022/03/25 12:47:43;;;;;;;16.67;12.20;;;;;;;;;;4899397;29;20474;-77
2022/03/25 12:50:10;;;;;;;15.80;11.13;;;;;;;;;;4900415;29;20423;-76
2022/03/25 12:52:36;;;;;;;16.03;12.40;;;;;;;;;;4900517;29;20447;-75
2022/03/25 12:55:06;;;;;;;14.20;12.03;;;;;;;;;;4900626;29;20428;-77
2022/03/25 12:57:33;;;;;;;21.07;12.77;;;;;;;;;;4900593;29;20471;-77
2022/03/25 12:59:59;;;;;;;20.50;12.90;;;;;;;;;;4900539;29;20419;-77
2022/03/25 13:02:30;;;;;;;16.30;12.63;;;;;;;;;;4898709;29;20436;-75
2022/03/25 13:05:04;;;;;;;17.47;11.87;;;;;;;;;;4900577;29;20427;-73
2022/03/25 13:07:30;;;;;;;17.23;10.47;;;;;;;;;;4900607;29;20876;-73
2022/03/25 13:09:56;;;;;;;18.97;11.93;;;;;;;;;;4899148;29;20430;-76
2022/03/25 13:12:33;;;;;;;19.23;11.20;;;;;;;;;;4900036;29;20459;-77
2022/03/25 13:14:59;;;;;;;18.77;11.97;;;;;;;;;;4900169;29;20498;-76
2022/03/25 13:17:44;;;;;;;13.30;10.50;;;;;;;;;;4900241;29;20917;-75
2022/03/25 13:20:18;;;;;;;19.10;12.37;;;;;;;;;;4900115;29;20476;-76
2022/03/25 13:22:58;;;;;;;30.00;11.90;;;;;;;;;;4900083;29;20447;-74
2022/03/25 13:25:25;;;;;;;20.13;11.33;;;;;;;;;;4900078;29;20427;-75
2022/03/25 13:27:51;;;;;;;15.00;11.50;;;;;;;;;;4906785;29;20559;-76
2022/03/25 13:30:17;;;;;;;19.83;12.10;;;;;;;;;;4913288;29;20509;-75
2022/03/25 13:32:43;;;;;;;13.73;11.30;;;;;;;;;;4923844;29;20570;-78
2022/03/25 13:35:10;;;;;;;15.10;10.40;;;;;;;;;;4902377;29;20775;-77
2022/03/25 13:37:37;;;;;;;17.60;12.50;;;;;;;;;;4898651;29;20446;-78
2022/03/25 13:40:04;;;;;;;19.20;12.03;;;;;;;;;;4899896;29;20828;-76
2022/03/25 13:42:34;;;;;;;16.73;11.50;;;;;;;;;;4899513;29;20435;-76
2022/03/25 13:45:07;;;;;;;19.33;12.27;;;;;;;;;;4899730;29;20475;-77
2022/03/25 13:47:34;;;;;;;16.73;10.90;;;;;;;;;;4899642;29;20506;-75
2022/03/25 13:50:13;;;;;;;20.97;13.80;;;;;;;;;;4899621;29;20446;-77
2022/03/25 13:52:39;;;;;;;13.73;11.07;;;;;;;;;;4899442;29;20459;-78
2022/03/25 13:55:18;;;;;;;14.17;11.07;;;;;;;;;;4899537;29;20861;-77
2022/03/25 13:57:57;;;;;;;16.43;10.67;;;;;;;;;;4899486;29;20510;-76
2022/03/25 14:00:35;;;;;;;16.57;12.10;;;;;;;;;;4897830;29;20606;-74
2022/03/25 14:03:01;;;;;;;22.30;12.43;;;;;;;;;;4899291;29;20503;-76
2022/03/25 14:05:27;;;;;;;16.40;11.93;;;;;;;;;;4899649;29;20423;-75
2022/03/25 14:07:54;;;;;;;21.23;10.87;;;;;;;;;;4899225;29;20559;-76
2022/03/25 14:10:21;;;;;;;16.53;10.83;;;;;;;;;;4911592;29;20415;-75
2022/03/25 14:13:01;;;;;;;18.03;10.60;;;;;;;;;;4916475;29;20414;-75
2022/03/25 14:15:28;;;;;;;15.10;10.93;;;;;;;;;;4917191;29;20414;-75
2022/03/25 14:17:54;;;;;;;13.10;10.40;;;;;;;;;;4918175;29;20415;-75
2022/03/25 14:20:22;;;;;;;17.23;11.10;;;;;;;;;;4917759;29;20467;-75
2022/03/25 14:22:52;;;;;;;17.00;10.80;;;;;;;;;;4917815;29;20422;-76
2022/03/25 14:25:20;;;;;;;15.60;10.07;;;;;;;;;;4917802;29;20552;-76